Time;durP1;ratioP1;P1;durP2;ratioP2;P2;SDS_P1;SDS_P2;PMS_P1;PMS_P2;Temp;Humidity;BMP_temperature;BMP_pressure;BME280_temperature;BME280_humidity;BME280_pressure;Samples;Min_cycle;Max_cycle;Signal;HPM_P1;HPM_P2
2022/12/10 00:00:50;;;;;;;;;;;1.20;99.90;;;0.21;100.00;96017.56;5039692;28;20428;-47
2022/12/10 00:03:15;;;;;;;;;;;1.20;99.90;;;0.22;100.00;96013.28;5051722;28;20341;-46
2022/12/10 00:05:41;;;;;;;;;;;1.20;99.90;;;0.23;100.00;96010.63;5027636;28;19963;-45
2022/12/10 00:08:07;;;;;;;;;;;1.20;99.90;;;0.26;100.00;96010.56;5039214;28;19925;-44
2022/12/10 00:10:32;;;;;;;;;;;1.20;99.90;;;0.27;100.00;96007.09;5038199;28;19927;-45
2022/12/10 00:12:58;;;;;;;;;;;1.20;99.90;;;0.27;100.00;96009.69;5039249;28;20324;-44
2022/12/10 00:15:23;;;;;;;;;;;1.20;99.90;;;0.24;100.00;96014.09;5037278;28;19920;-44
2022/12/10 00:17:49;;;;;;;;;;;1.20;99.90;;;0.17;100.00;96021.13;5045282;28;19959;-44
2022/12/10 00:20:15;;;;;;;;;;;1.20;99.90;;;0.16;100.00;96022.88;5023209;28;19927;-45
2022/12/10 00:22:40;;;;;;;;;;;1.20;99.90;;;0.15;100.00;96026.31;5038590;28;20607;-44
2022/12/10 00:25:06;;;;;;;;;;;1.10;99.90;;;0.11;100.00;96027.28;5041265;28;20065;-45
2022/12/10 00:27:32;;;;;;;;;;;1.10;99.90;;;0.07;100.00;96019.56;5038327;28;19932;-44
2022/12/10 00:29:57;;;;;;;;;;;1.10;99.90;;;0.10;100.00;96019.53;5048057;28;21854;-45
2022/12/10 00:32:23;;;;;;;;;;;1.10;99.90;;;0.11;100.00;96018.66;5040347;28;19952;-45
2022/12/10 00:34:49;;;;;;;;;;;1.10;99.90;;;0.11;100.00;96011.72;5034197;28;20338;-45
2022/12/10 00:37:14;;;;;;;;;;;1.10;99.90;;;0.12;100.00;96010.81;5038153;28;20300;-45
2022/12/10 00:39:40;;;;;;;;;;;1.10;99.90;;;0.04;100.00;95997.16;5032024;28;19920;-44
2022/12/10 00:42:05;;;;;;;;;;;1.10;99.90;;;-0.05;100.00;95989.56;5026009;28;19916;-44
2022/12/10 00:44:31;;;;;;;;;;;1.10;99.90;;;0.02;100.00;96013.59;5030712;28;19917;-44
2022/12/10 00:46:57;;;;;;;;;;;1.10;99.90;;;-0.01;100.00;96012.78;5021830;28;20374;-45
2022/12/10 00:49:24;;;;;;;;;;;1.00;99.90;;;0.03;100.00;95997.19;5039352;28;20427;-45
2022/12/10 00:51:50;;;;;;;;;;;1.00;99.90;;;-0.09;100.00;95991.34;5039255;28;19927;-46
2022/12/10 00:54:15;;;;;;;;;;;1.00;99.90;;;0.02;100.00;96011.88;5038735;28;19920;-44
2022/12/10 00:56:41;;;;;;;;;;;1.00;99.90;;;0.01;100.00;96010.16;5035361;28;19977;-45
2022/12/10 00:59:06;;;;;;;;;;;1.00;99.90;;;-0.02;100.00;96015.38;5041371;28;20399;-46
2022/12/10 01:01:38;;;;;;;;;;;1.00;99.90;;;-0.13;100.00;96012.13;5036306;28;20008;-46
2022/12/10 01:04:07;;;;;;;;;;;1.00;99.90;;;-0.12;100.00;96019.91;5050772;28;19916;-47
2022/12/10 01:06:35;;;;;;;;;;;1.00;99.90;;;-0.09;100.00;96025.03;5034829;28;19934;-47
2022/12/10 01:09:06;;;;;;;;;;;0.90;99.90;;;-0.05;100.00;96031.00;5030056;28;19916;-44
2022/12/10 01:11:35;;;;;;;;;;;1.00;99.90;;;-0.05;100.00;96023.25;5037809;28;21107;-47
2022/12/10 01:14:00;;;;;;;;;;;0.90;99.90;;;-0.02;100.00;96031.81;5036013;28;19951;-46
2022/12/10 01:16:26;;;;;;;;;;;1.00;99.90;;;0.03;100.00;96034.31;5037115;28;19919;-46
2022/12/10 01:18:53;;;;;;;;;;;1.00;99.90;;;0.06;100.00;96041.19;5035044;28;20045;-45
2022/12/10 01:21:19;;;;;;;;;;;1.00;99.90;;;0.08;100.00;96029.91;5020295;28;19920;-45
2022/12/10 01:23:46;;;;;;;;;;;1.10;99.90;;;0.08;100.00;96039.44;5041855;28;19921;-45
2022/12/10 01:26:15;;;;;;;;;;;1.00;99.90;;;0.07;100.00;96048.06;5041020;28;20150;-46
2022/12/10 01:28:42;;;;;;;;;;;1.10;99.90;;;0.07;100.00;96048.06;5031828;28;19926;-44
2022/12/10 01:31:16;;;;;;;;;;;1.00;99.90;;;0.13;100.00;96060.94;5033983;28;19920;-46
2022/12/10 01:33:42;;;;;;;;;;;1.10;99.90;;;0.09;100.00;96057.56;5033151;28;19943;-45
2022/12/10 01:36:13;;;;;;;;;;;1.10;99.90;;;0.00;100.00;96065.50;5030680;28;20483;-44
2022/12/10 01:38:39;;;;;;;;;;;1.10;99.90;;;0.01;100.00;96062.00;5037016;28;20075;-45
2022/12/10 01:41:06;;;;;;;;;;;1.00;99.90;;;-0.01;100.00;96066.34;5038367;28;20170;-46
2022/12/10 01:43:51;;;;;;;;;;;1.00;99.90;;;0.01;100.00;96074.97;5038599;28;20609;-44
2022/12/10 01:46:17;;;;;;;;;;;1.00;99.90;;;-0.16;100.00;96059.69;5047021;28;19985;-44
2022/12/10 01:48:42;;;;;;;;;;;1.00;99.90;;;-0.11;100.00;96081.19;5043266;28;19949;-45
2022/12/10 01:51:09;;;;;;;;;;;1.00;99.90;;;-0.09;100.00;96076.88;5046282;28;19920;-45
2022/12/10 01:53:34;;;;;;;;;;;1.00;99.90;;;-0.09;100.00;96078.56;5046114;28;19912;-46
2022/12/10 01:56:00;;;;;;;;;;;1.00;99.90;;;-0.06;100.00;96075.94;5040984;28;19925;-43
2022/12/10 01:58:25;;;;;;;;;;;0.90;99.90;;;-0.09;100.00;96063.91;5044948;28;19944;-47
2022/12/10 02:01:01;;;;;;;;;;;1.00;99.90;;;-0.05;100.00;96072.47;5041203;28;20365;-45
2022/12/10 02:03:36;;;;;;;;;;;1.00;99.90;;;-0.07;100.00;96069.03;5046800;28;20134;-45
2022/12/10 02:06:19;;;;;;;;;;;0.90;99.90;;;-0.06;100.00;96071.59;5045843;28;20041;-46
2022/12/10 02:08:57;;;;;;;;;;;1.00;99.90;;;-0.05;100.00;96073.34;5027702;28;19935;-45
2022/12/10 02:11:33;;;;;;;;;;;0.90;99.90;;;-0.02;100.00;96075.00;5044844;28;19916;-44
2022/12/10 02:14:18;;;;;;;;;;;1.00;99.90;;;0.00;100.00;96070.69;5034497;28;20007;-45
2022/12/10 02:16:54;;;;;;;;;;;1.00;99.90;;;-0.03;100.00;96075.91;5049656;28;20229;-46
2022/12/10 02:19:31;;;;;;;;;;;1.00;99.90;;;-0.02;100.00;96073.28;5030613;28;19920;-46
2022/12/10 02:21:57;;;;;;;;;;;1.00;99.90;;;-0.02;100.00;96062.03;5044411;28;19931;-44
2022/12/10 02:24:27;;;;;;;;;;;1.00;99.90;;;-0.04;100.00;96067.25;5027014;28;19919;-45
2022/12/10 02:27:16;;;;;;;;;;;1.00;99.90;;;-0.04;100.00;96069.00;5040027;28;19924;-45
2022/12/10 02:29:43;;;;;;;;;;;1.00;99.90;;;-0.06;100.00;96065.56;5042690;28;20183;-45
2022/12/10 02:32:13;;;;;;;;;;;1.00;99.90;;;-0.07;100.00;96064.72;5033251;28;19935;-46
2022/12/10 02:34:43;;;;;;;;;;;1.00;99.90;;;-0.07;100.00;96061.25;5022103;28;19912;-45
2022/12/10 02:37:18;;;;;;;;;;;0.90;99.90;;;-0.12;100.00;96058.75;5028650;28;20463;-45
2022/12/10 02:39:47;;;;;;;;;;;0.90;99.90;;;-0.11;100.00;96051.84;5031489;28;20153;-45
2022/12/10 02:42:14;;;;;;;;;;;0.90;99.90;;;-0.11;100.00;96050.09;5022771;28;19924;-44
2022/12/10 02:44:40;;;;;;;;;;;0.90;99.90;;;-0.15;100.00;96047.59;5027029;28;19920;-44
2022/12/10 02:47:06;;;;;;;;;;;0.80;99.90;;;-0.16;100.00;96044.16;5025275;28;19920;-44
2022/12/10 02:49:32;;;;;;;;;;;0.80;99.90;;;-0.20;100.00;96040.75;5021329;28;20415;-44
2022/12/10 02:51:59;;;;;;;;;;;0.80;99.90;;;-0.21;100.00;96041.63;5045254;28;19924;-44
2022/12/10 02:54:40;;;;;;;;;;;0.80;99.90;;;-0.25;100.00;96031.31;5049026;28;19947;-44
2022/12/10 02:57:20;;;;;;;;;;;0.80;99.90;;;-0.25;100.00;96032.19;5046925;28;19916;-44
2022/12/10 03:00:06;;;;;;;;;;;0.70;99.90;;;-0.31;100.00;96024.50;5050344;28;20011;-45
2022/12/10 03:03:13;;;;;;;;;;;0.70;99.90;;;-0.37;100.00;96019.44;5041433;28;21848;-46
2022/12/10 03:06:04;;;;;;;;;;;0.60;99.90;;;-0.65;100.00;95999.16;5043921;28;19912;-45
2022/12/10 03:08:42;;;;;;;;;;;0.60;99.90;;;-0.47;100.00;96036.00;5045455;28;19924;-46
2022/12/10 03:11:22;;;;;;;;;;;0.50;99.90;;;-0.51;100.00;96037.78;5044846;28;20643;-45
2022/12/10 03:14:12;;;;;;;;;;;0.50;99.90;;;-0.47;100.00;96036.00;5043945;28;19931;-44
2022/12/10 03:16:42;;;;;;;;;;;0.50;99.90;;;-0.44;100.00;96033.38;5043337;28;19963;-45
2022/12/10 03:19:28;;;;;;;;;;;0.50;99.90;;;-0.42;100.00;96036.78;5048593;28;19919;-45
2022/12/10 03:21:54;;;;;;;;;;;0.50;99.90;;;-0.34;100.00;96039.25;5043117;28;19912;-46
2022/12/10 03:24:20;;;;;;;;;;;0.60;99.90;;;-0.33;100.00;96036.63;5031408;28;20138;-46
2022/12/10 03:26:48;;;;;;;;;;;0.70;99.90;;;-0.29;100.00;96042.63;5046211;28;19924;-47
2022/12/10 03:29:18;;;;;;;;;;;0.70;99.90;;;-0.26;100.00;96033.06;5045156;28;19920;-45
2022/12/10 03:31:43;;;;;;;;;;;0.70;99.90;;;-0.22;100.00;96026.94;5023659;28;19916;-44
2022/12/10 03:34:10;;;;;;;;;;;0.80;99.90;;;-0.25;100.00;96013.19;5035729;28;20055;-46
2022/12/10 03:36:36;;;;;;;;;;;0.80;99.90;;;-0.37;100.00;95995.28;5027166;28;19912;-44
2022/12/10 03:39:02;;;;;;;;;;;0.70;99.90;;;-0.29;100.00;96024.50;5036583;28;20114;-45
2022/12/10 03:41:27;;;;;;;;;;;0.70;99.90;;;-0.40;100.00;96011.72;5045507;28;19913;-45
2022/12/10 03:43:55;;;;;;;;;;;0.70;99.90;;;-0.45;100.00;96016.09;5025701;28;19921;-44
2022/12/10 03:46:22;;;;;;;;;;;0.60;99.90;;;-0.43;100.00;96015.22;5046246;28;19924;-45
2022/12/10 03:48:47;;;;;;;;;;;0.60;99.90;;;-0.51;100.00;96023.97;5044941;28;19948;-45
2022/12/10 03:51:13;;;;;;;;;;;0.60;99.90;;;-0.52;100.00;96040.38;5045211;28;20006;-45
2022/12/10 03:53:39;;;;;;;;;;;0.60;99.90;;;-0.55;100.00;96041.31;5045213;28;19921;-44
2022/12/10 03:56:04;;;;;;;;;;;0.50;99.90;;;-0.65;100.00;96017.25;5043172;28;19920;-45
2022/12/10 03:58:30;;;;;;;;;;;0.50;99.90;;;-0.48;100.00;96044.66;5041273;28;20541;-44
2022/12/10 04:00:55;;;;;;;;;;;0.60;99.90;;;-0.48;100.00;96050.69;5034226;28;20023;-45
2022/12/10 04:03:21;;;;;;;;;;;0.60;99.90;;;-0.48;100.00;96062.78;5047162;28;19916;-46
2022/12/10 04:05:46;;;;;;;;;;;0.60;99.90;;;-0.49;100.00;96053.31;5044118;28;19924;-44
2022/12/10 04:08:12;;;;;;;;;;;0.60;99.90;;;-0.50;100.00;96062.81;5043932;28;19963;-45
2022/12/10 04:10:38;;;;;;;;;;;0.50;99.90;;;-0.51;100.00;96052.47;5045890;28;20295;-46
2022/12/10 04:18:32;;;;;;;;;;;0.60;99.90;;;-0.53;100.00;96070.63;5046040;28;19923;-44
2022/12/10 04:29:11;;;;;;;;;;;0.50;99.90;;;-0.67;100.00;96073.41;5042408;28;19931;-45
2022/12/10 04:31:36;;;;;;;;;;;0.40;99.90;;;-0.68;100.00;96063.94;5041033;28;20283;-44
2022/12/10 04:34:02;;;;;;;;;;;0.40;99.90;;;-0.65;100.00;96075.97;5032985;28;20430;-45
2022/12/10 04:36:28;;;;;;;;;;;0.40;99.90;;;-0.68;100.00;96076.88;5044223;28;19921;-45
2022/12/10 04:38:53;;;;;;;;;;;0.40;99.90;;;-0.72;100.00;96085.53;5043250;28;20389;-45
2022/12/10 04:41:19;;;;;;;;;;;0.40;99.90;;;-0.73;100.00;96078.69;5036642;28;19912;-45
2022/12/10 04:43:44;;;;;;;;;;;0.40;99.90;;;-0.76;100.00;96070.94;5039950;28;20364;-45
2022/12/10 04:46:10;;;;;;;;;;;0.30;99.90;;;-0.76;100.00;96063.19;5039662;28;19920;-45
2022/12/10 04:48:36;;;;;;;;;;;0.30;99.90;;;-0.71;100.00;96071.75;5035128;28;19920;-46
2022/12/10 04:51:02;;;;;;;;;;;0.40;99.90;;;-0.64;100.00;96073.38;5040732;28;20157;-46
2022/12/10 04:53:27;;;;;;;;;;;0.40;99.90;;;-0.70;100.00;96078.63;5039394;28;20537;-44
2022/12/10 04:55:53;;;;;;;;;;;0.40;99.90;;;-0.96;100.00;96048.78;5033853;28;19921;-45
2022/12/10 04:58:19;;;;;;;;;;;0.30;99.90;;;-0.74;100.00;96086.47;5038782;28;20339;-45
2022/12/10 05:00:44;;;;;;;;;;;0.30;99.90;;;-0.85;100.00;96076.25;5039325;28;19912;-45
2022/12/10 05:03:10;;;;;;;;;;;0.30;99.90;;;-0.82;100.00;96086.56;5035665;28;19920;-44
2022/12/10 05:05:35;;;;;;;;;;;0.30;99.90;;;-0.82;100.00;96078.81;5037671;28;20542;-45
2022/12/10 05:08:01;;;;;;;;;;;0.30;99.90;;;-0.81;100.00;96077.91;5030363;28;20014;-44
2022/12/10 05:10:27;;;;;;;;;;;0.30;99.90;;;-0.83;100.00;96071.91;5035607;28;20399;-46
2022/12/10 05:12:52;;;;;;;;;;;0.30;99.90;;;-0.78;100.00;96076.13;5037991;28;20046;-44
2022/12/10 05:15:18;;;;;;;;;;;0.30;99.90;;;-0.68;100.00;96076.00;5038147;28;22064;-44
2022/12/10 05:17:44;;;;;;;;;;;0.30;99.90;;;-0.70;100.00;96080.34;5043148;28;19966;-44
2022/12/10 05:20:10;;;;;;;;;;;0.30;99.90;;;-0.75;100.00;96085.63;5042261;28;20038;-44
2022/12/10 05:25:19;;;;;;;;;;;0.40;99.90;;;-0.64;100.00;96078.53;5042997;28;20810;-45
2022/12/10 05:27:45;;;;;;;;;;;0.40;99.90;;;-0.66;100.00;96072.53;5035673;28;19916;-43
2022/12/10 05:30:11;;;;;;;;;;;0.40;99.90;;;-0.67;100.00;96077.72;5029641;28;19920;-44
2022/12/10 05:32:37;;;;;;;;;;;0.40;99.90;;;-0.70;100.00;96082.94;5032131;28;19917;-45
2022/12/10 05:35:03;;;;;;;;;;;0.40;99.90;;;-0.77;100.00;96083.03;5033397;28;20079;-45
2022/12/10 05:37:28;;;;;;;;;;;0.30;99.90;;;-0.83;100.00;96087.44;5033953;28;20120;-44
2022/12/10 05:39:54;;;;;;;;;;;0.30;99.90;;;-0.89;100.00;96085.78;5032756;28;20296;-46
2022/12/10 05:42:20;;;;;;;;;;;0.20;99.90;;;-0.93;100.00;96086.72;5024467;28;20046;-45
2022/12/10 05:44:45;;;;;;;;;;;0.20;99.90;;;-0.91;100.00;96090.13;5021600;28;19924;-44
2022/12/10 05:47:11;;;;;;;;;;;0.20;99.90;;;-0.93;100.00;96091.00;5030699;28;20113;-44
2022/12/10 05:49:37;;;;;;;;;;;0.20;99.90;;;-0.98;100.00;96091.94;5030838;28;20013;-44
2022/12/10 05:52:02;;;;;;;;;;;0.20;99.90;;;-1.06;100.00;96070.50;5042443;28;20483;-45
2022/12/10 05:54:28;;;;;;;;;;;0.10;99.90;;;-0.98;100.00;96091.94;5043211;28;20023;-44
2022/12/10 05:56:54;;;;;;;;;;;0.20;99.90;;;-1.07;100.00;96079.13;5025473;28;19921;-47
2022/12/10 05:59:19;;;;;;;;;;;0.10;99.90;;;-1.06;100.00;96096.38;5042796;28;19927;-44
2022/12/10 06:01:45;;;;;;;;;;;0.00;99.90;;;-1.05;100.00;96095.47;5042239;28;19928;-45
2022/12/10 06:04:11;;;;;;;;;;;0.00;99.90;;;-1.05;100.00;96097.22;5041514;28;20100;-45
2022/12/10 06:06:38;;;;;;;;;;;0.00;99.90;;;-1.03;100.00;96095.47;5037883;28;19920;-45
2022/12/10 06:09:06;;;;;;;;;;;0.00;99.90;;;-1.11;100.00;96105.03;5037748;28;20237;-44
2022/12/10 06:11:32;;;;;;;;;;;0.00;99.90;;;-1.12;100.00;96109.34;5038374;28;19990;-45
2022/12/10 06:13:58;;;;;;;;;;;0.00;99.90;;;-1.15;100.00;96109.38;5037406;28;20411;-44
2022/12/10 06:16:26;;;;;;;;;;;0.00;99.90;;;-1.15;100.00;96117.16;5041083;28;20491;-44
2022/12/10 06:18:52;;;;;;;;;;;0.00;99.90;;;-1.14;100.00;96118.88;5036137;28;20376;-45
2022/12/10 06:21:18;;;;;;;;;;;-0.10;99.90;;;-1.15;100.00;96114.56;5045130;28;20530;-44
2022/12/10 06:23:44;;;;;;;;;;;-0.10;99.90;;;-1.14;100.00;96123.19;5040311;28;19913;-44
2022/12/10 06:26:16;;;;;;;;;;;-0.10;99.90;;;-1.13;100.00;96123.19;5040259;28;20292;-45
2022/12/10 06:28:44;;;;;;;;;;;-0.10;99.90;;;-1.09;100.00;96124.00;5037543;28;20380;-44
2022/12/10 06:31:10;;;;;;;;;;;0.00;99.90;;;-1.09;100.00;96114.50;5042182;28;19929;-45
2022/12/10 06:33:36;;;;;;;;;;;0.00;99.90;;;-1.01;100.00;96133.38;5031235;28;19920;-44
2022/12/10 06:36:04;;;;;;;;;;;0.10;99.90;;;-1.00;100.00;96131.66;5031798;28;19920;-46
2022/12/10 06:38:30;;;;;;;;;;;0.10;99.90;;;-1.03;100.00;96121.34;5032861;28;19927;-47
2022/12/10 06:40:56;;;;;;;;;;;0.10;99.90;;;-1.10;100.00;96117.09;5033464;28;20019;-44
2022/12/10 06:43:22;;;;;;;;;;;0.10;99.90;;;-0.96;100.00;96136.75;5032486;28;20379;-44
2022/12/10 06:45:47;;;;;;;;;;;0.10;99.90;;;-0.91;100.00;96146.22;5036938;28;19920;-46
2022/12/10 06:48:13;;;;;;;;;;;0.20;99.90;;;-0.95;100.00;96150.56;5046498;28;20053;-44
2022/12/10 06:50:38;;;;;;;;;;;0.20;99.90;;;-1.00;100.00;96145.44;5040973;28;19977;-45
2022/12/10 06:53:04;;;;;;;;;;;0.20;99.90;;;-0.98;100.00;96154.03;5049653;28;20568;-45
2022/12/10 06:55:30;;;;;;;;;;;0.10;99.90;;;-1.04;100.00;96140.31;5045842;28;19948;-46
2022/12/10 06:57:55;;;;;;;;;;;0.10;99.90;;;-1.13;100.00;96120.59;5043533;28;19921;-45
2022/12/10 07:00:21;;;;;;;;;;;0.10;99.90;;;-0.98;100.00;96154.03;5045528;28;19916;-45
2022/12/10 07:02:47;;;;;;;;;;;0.10;99.90;;;-0.96;100.00;96151.44;5048803;28;19920;-45
2022/12/10 07:05:13;;;;;;;;;;;0.10;99.90;;;-1.01;100.00;96148.88;5046204;28;19938;-44
2022/12/10 07:07:39;;;;;;;;;;;0.10;99.90;;;-1.01;100.00;96148.03;5046460;28;19924;-44
2022/12/10 07:10:05;;;;;;;;;;;0.10;99.90;;;-1.02;100.00;96151.53;5043959;28;19921;-44
2022/12/10 07:12:31;;;;;;;;;;;0.10;99.90;;;-1.05;100.00;96147.22;5047070;28;19912;-45
2022/12/10 07:14:57;;;;;;;;;;;0.10;99.90;;;-1.07;100.00;96146.38;5046313;28;20346;-44
2022/12/10 07:17:22;;;;;;;;;;;0.00;99.90;;;-1.06;100.00;96155.00;5050742;28;19924;-44
2022/12/10 07:19:48;;;;;;;;;;;0.00;99.90;;;-1.01;100.00;96154.06;5047107;28;21440;-45
2022/12/10 07:22:13;;;;;;;;;;;0.00;99.90;;;-1.00;100.00;96155.78;5041666;28;19927;-44
2022/12/10 07:24:39;;;;;;;;;;;0.10;99.90;;;-0.97;100.00;96160.94;5041605;28;19930;-44
2022/12/10 07:27:05;;;;;;;;;;;0.10;99.90;;;-0.97;100.00;96160.94;5041598;28;19924;-44
2022/12/10 07:29:31;;;;;;;;;;;0.10;99.90;;;-1.21;100.00;96132.75;5047568;28;20372;-45
2022/12/10 07:31:57;;;;;;;;;;;0.10;99.90;;;-0.98;100.00;96172.16;5043535;28;20061;-44
2022/12/10 07:34:22;;;;;;;;;;;0.10;99.90;;;-1.05;100.00;96154.97;5047856;28;19947;-44
2022/12/10 07:36:48;;;;;;;;;;;0.10;99.90;;;-1.00;100.00;96167.88;5044485;28;20380;-45
2022/12/10 07:39:17;;;;;;;;;;;0.20;99.90;;;-0.92;100.00;96175.56;5041496;28;19917;-46
2022/12/10 07:41:52;;;;;;;;;;;0.20;99.90;;;-1.09;100.00;96153.31;5041703;28;20175;-44
2022/12/10 07:44:20;;;;;;;;;;;0.20;99.90;;;-0.86;100.00;96183.22;5025780;28;19912;-46
2022/12/10 07:46:48;;;;;;;;;;;0.20;99.90;;;-0.86;100.00;96181.53;5040943;28;19928;-44
2022/12/10 07:49:13;;;;;;;;;;;0.30;99.90;;;-0.94;100.00;96177.31;5039859;28;19926;-46
2022/12/10 07:51:39;;;;;;;;;;;0.20;99.90;;;-0.91;100.00;96182.47;5042569;28;20609;-44
2022/12/10 07:54:04;;;;;;;;;;;0.30;99.90;;;-0.89;100.00;96183.28;5040352;28;20641;-44
2022/12/10 07:56:30;;;;;;;;;;;0.20;99.90;;;-0.97;100.00;96179.06;5043611;28;20423;-47
2022/12/10 07:58:56;;;;;;;;;;;0.20;99.90;;;-0.78;100.00;96190.03;5030338;28;20030;-45
2022/12/10 08:01:24;;;;;;;;;;;0.30;99.90;;;-0.83;100.00;96191.81;5044992;28;20639;-45
2022/12/10 08:03:50;;;;;;;;;;;0.30;99.90;;;-0.84;100.00;96191.88;5042088;28;20348;-45
2022/12/10 08:06:18;;;;;;;;;;;0.30;99.90;;;-0.81;100.00;96204.75;5040712;28;19951;-48
2022/12/10 08:08:44;;;;;;;;;;;0.20;99.90;;;-0.88;100.00;96200.50;5041272;28;19963;-48
2022/12/10 08:11:11;;;;;;;;;;;0.30;99.90;;;-0.85;100.00;96197.91;5037028;28;19924;-44
2022/12/10 08:13:37;;;;;;;;;;;0.30;99.90;;;-0.83;100.00;96214.28;5032418;28;19956;-45
2022/12/10 08:16:05;;;;;;;;;;;0.30;99.90;;;-0.82;100.00;96203.91;5035782;28;20011;-45
2022/12/10 08:18:31;;;;;;;;;;;0.30;99.90;;;-0.86;100.00;96191.00;5039182;28;20045;-46
2022/12/10 08:20:57;;;;;;;;;;;0.30;99.90;;;-0.71;100.00;96183.06;5042644;28;19920;-45
2022/12/10 08:23:23;;;;;;;;;;;0.40;99.90;;;-0.67;100.00;96196.81;5032449;28;19927;-45
2022/12/10 08:25:48;;;;;;;;;;;0.40;99.90;;;-0.63;100.00;96191.59;5033662;28;19964;-46
2022/12/10 08:28:14;;;;;;;;;;;0.50;99.90;;;-0.52;100.00;96209.59;5035716;28;19929;-47
2022/12/10 08:30:40;;;;;;;;;;;0.50;99.90;;;-0.46;100.00;96206.91;5042416;28;19920;-46
2022/12/10 08:33:06;;;;;;;;;;;0.60;99.90;;;-0.40;100.00;96209.41;5037060;28;19921;-45
2022/12/10 08:35:31;;;;;;;;;;;0.70;99.90;;;-0.37;100.00;96203.34;5035347;28;20319;-44
2022/12/10 08:37:57;;;;;;;;;;;0.70;99.90;;;-0.34;100.00;96211.09;5031922;28;20341;-46
2022/12/10 08:40:23;;;;;;;;;;;0.70;99.90;;;-0.22;100.00;96210.91;5035216;28;19920;-46
2022/12/10 08:42:48;;;;;;;;;;;0.80;99.90;;;-0.23;100.00;96198.00;5032540;28;20234;-46
2022/12/10 08:45:14;;;;;;;;;;;0.80;99.90;;;-0.12;100.00;96208.22;5036320;28;19924;-44
2022/12/10 08:47:39;;;;;;;;;;;0.90;99.90;;;-0.12;100.00;96197.84;5035258;28;19924;-46
2022/12/10 08:50:05;;;;;;;;;;;0.90;99.90;;;-0.13;100.00;96222.03;5036709;28;20860;-46
2022/12/10 08:52:31;;;;;;;;;;;1.00;99.90;;;-0.09;100.00;96216.81;5038314;28;20035;-46
2022/12/10 08:54:56;;;;;;;;;;;1.00;99.90;;;-0.05;100.00;96220.22;5038861;28;19923;-48
2022/12/10 08:57:22;;;;;;;;;;;1.00;99.90;;;0.04;100.00;96234.78;5038955;28;19934;-46
2022/12/10 08:59:48;;;;;;;;;;;1.10;99.90;;;0.04;100.00;96227.84;5034373;28;20526;-44
2022/12/10 09:02:13;;;;;;;;;;;1.10;99.90;;;0.09;100.00;96223.47;5038806;28;19916;-45
2022/12/10 09:04:39;;;;;;;;;;;1.20;99.90;;;0.10;100.00;96219.97;5034872;28;19924;-45
2022/12/10 09:07:05;;;;;;;;;;;1.20;99.90;;;0.34;100.00;96242.09;5034044;28;20902;-46
2022/12/10 09:09:31;;;;;;;;;;;1.30;99.90;;;0.34;100.00;96241.22;5030808;28;20061;-46
2022/12/10 09:11:57;;;;;;;;;;;1.40;99.90;;;0.15;100.00;96223.34;5032735;28;19920;-44
2022/12/10 09:14:23;;;;;;;;;;;1.30;99.90;;;0.31;100.00;96244.72;5033876;28;19916;-44
2022/12/10 09:16:49;;;;;;;;;;;1.30;99.90;;;0.30;100.00;96240.41;5039218;28;19913;-45
2022/12/10 09:19:15;;;;;;;;;;;1.30;99.90;;;0.25;100.00;96252.63;5047537;28;19920;-47
2022/12/10 09:21:40;;;;;;;;;;;1.30;99.90;;;0.21;100.00;96250.09;5041876;28;19912;-45
2022/12/10 09:24:06;;;;;;;;;;;1.30;99.90;;;0.31;100.00;96254.25;5045615;28;20398;-44
2022/12/10 09:26:32;;;;;;;;;;;1.30;99.90;;;0.35;100.00;96255.91;5045933;28;19932;-46
2022/12/10 09:28:58;;;;;;;;;;;1.40;99.90;;;0.32;100.00;96259.44;5045059;28;19931;-45
2022/12/10 09:31:24;;;;;;;;;;;1.40;99.90;;;0.29;100.00;96258.63;5038702;28;20722;-46
2022/12/10 09:33:51;;;;;;;;;;;1.40;99.90;;;0.45;100.00;96265.28;5041337;28;19920;-47
2022/12/10 09:36:18;;;;;;;;;;;1.40;99.90;;;0.46;100.00;96277.34;5028814;28;19942;-46
2022/12/10 09:38:44;;;;;;;;;;;1.50;99.90;;;0.51;100.00;96272.97;5026422;28;20400;-47
2022/12/10 09:41:10;;;;;;;;;;;1.50;99.90;;;0.50;100.00;96273.84;5030954;28;19963;-45
2022/12/10 09:43:35;;;;;;;;;;;1.60;99.90;;;0.39;100.00;96273.13;5037195;28;20238;-47
2022/12/10 09:46:13;;;;;;;;;;;1.50;99.90;;;0.49;100.00;96263.50;5039664;28;20390;-48
2022/12/10 09:48:51;;;;;;;;;;;1.50;99.90;;;0.43;100.00;96268.75;5026893;28;20521;-44
2022/12/10 09:51:21;;;;;;;;;;;1.50;99.90;;;0.43;100.00;96261.88;5042285;28;20210;-47
2022/12/10 09:53:48;;;;;;;;;;;1.50;99.90;;;0.42;100.00;96260.13;5032115;28;19912;-46
2022/12/10 09:56:22;;;;;;;;;;;1.50;99.90;;;0.46;100.00;96263.53;5043484;28;19989;-46
2022/12/10 09:58:48;;;;;;;;;;;1.50;99.90;;;0.41;100.00;96261.00;5026255;28;20031;-46
2022/12/10 10:01:16;;;;;;;;;;;1.50;99.90;;;0.49;100.00;96261.75;5040753;28;19926;-50
2022/12/10 10:03:42;;;;;;;;;;;1.60;99.90;;;0.35;100.00;96245.53;5033173;28;19943;-49
2022/12/10 10:06:12;;;;;;;;;;;1.60;99.90;;;0.48;100.00;96270.41;5039237;28;20380;-45
2022/12/10 10:08:42;;;;;;;;;;;1.60;99.90;;;0.47;100.00;96265.25;5037371;28;19920;-49
2022/12/10 10:11:19;;;;;;;;;;;1.60;99.90;;;0.52;100.00;96266.03;5039313;28;19921;-47
2022/12/10 10:13:48;;;;;;;;;;;1.60;99.90;;;0.48;100.00;96266.97;5040035;28;19917;-47
2022/12/10 10:16:23;;;;;;;;;;;1.60;99.90;;;0.52;100.00;96266.91;5036739;28;20003;-45
2022/12/10 10:18:59;;;;;;;;;;;1.60;99.90;;;0.67;100.00;96268.38;5034020;28;20253;-46
2022/12/10 10:21:38;;;;;;;;;;;1.60;99.90;;;0.78;100.00;96273.41;5034984;28;20411;-45
2022/12/10 10:24:05;;;;;;;;;;;1.70;99.90;;;0.76;100.00;96259.59;5017522;28;20383;-48
2022/12/10 10:26:31;;;;;;;;;;;1.80;99.90;;;0.80;100.00;96261.25;5006683;28;20400;-47
2022/12/10 10:29:01;;;;;;;;;;;1.80;99.90;;;0.73;100.00;96264.84;5043368;28;20379;-46
2022/12/10 10:31:31;;;;;;;;;;;1.90;99.90;;;0.68;100.00;96262.31;5069341;22;19969;-57
2022/12/10 10:34:00;;;;;;;;;;;1.80;99.90;;;0.57;100.00;96253.84;5050297;28;21188;-57
2022/12/10 10:36:31;;;;;;;;;;;1.80;99.90;;;0.59;100.00;96261.59;5056401;28;19943;-57
2022/12/10 10:39:07;;;;;;;;;;;1.70;99.90;;;0.53;100.00;96255.63;5048254;28;20653;-57
2022/12/10 10:41:39;;;;;;;;;;;1.70;99.90;;;0.53;100.00;96254.78;5052656;28;19919;-56
2022/12/10 10:44:14;;;;;;;;;;;1.70;99.90;;;0.63;100.00;96260.66;5053028;28;19960;-56
2022/12/10 10:46:40;;;;;;;;;;;1.70;99.90;;;0.63;100.00;96263.25;5043675;28;19981;-57
2022/12/10 10:49:36;;;;;;;;;;;1.70;99.90;;;0.72;100.00;96253.59;5036261;28;19920;-56
2022/12/10 10:52:06;;;;;;;;;;;1.80;99.90;;;0.69;100.00;96252.78;5037324;28;19923;-56
2022/12/10 10:54:33;;;;;;;;;;;1.80;99.90;;;0.62;100.00;96266.75;5026246;28;19924;-56
2022/12/10 10:57:03;;;;;;;;;;;1.80;99.90;;;0.62;100.00;96264.16;5050156;28;19969;-56
2022/12/10 10:59:33;;;;;;;;;;;1.80;99.90;;;0.62;100.00;96277.13;5049105;28;19916;-56
2022/12/10 11:02:16;;;;;;;;;;;1.70;99.90;;;0.70;100.00;96272.66;5032936;28;19920;-55
2022/12/10 11:04:47;;;;;;;;;;;1.80;99.90;;;0.71;100.00;96283.03;5034228;28;19955;-56
2022/12/10 11:07:20;;;;;;;;;;;1.90;99.90;;;0.78;100.00;96283.78;5036528;28;20441;-57
2022/12/10 11:09:45;;;;;;;;;;;1.90;99.90;;;0.97;100.00;96278.28;5044148;28;20089;-56
2022/12/10 11:12:23;;;;;;;;;;;2.00;99.90;;;1.06;100.00;96284.19;5058130;28;20027;-56
2022/12/10 11:14:49;;;;;;;;;;;2.10;99.90;;;1.01;100.00;96277.38;5055743;28;20718;-55
2022/12/10 11:17:14;;;;;;;;;;;2.10;99.90;;;0.98;100.00;96277.41;5054171;28;20394;-56
2022/12/10 11:19:53;;;;;;;;;;;2.10;99.90;;;0.91;100.00;96289.63;5049883;28;19962;-55
2022/12/10 11:22:29;;;;;;;;;;;2.10;99.90;;;0.91;100.00;96285.28;5053905;28;20371;-54
2022/12/10 11:24:54;;;;;;;;;;;2.00;99.90;;;0.99;100.00;96279.09;5054296;28;20019;-54
2022/12/10 11:27:35;;;;;;;;;;;2.10;99.90;;;0.95;100.00;96281.78;5050927;28;20001;-55
2022/12/10 11:30:05;;;;;;;;;;;2.10;99.90;;;1.02;100.00;96284.25;5045731;28;20345;-55
2022/12/10 11:32:37;;;;;;;;;;;2.10;99.90;;;0.93;100.00;96288.75;5031003;28;19921;-55
2022/12/10 11:35:22;;;;;;;;;;;2.10;99.90;;;1.03;100.00;96288.56;5029557;28;20292;-53
2022/12/10 11:37:53;;;;;;;;;;;2.10;99.90;;;1.09;100.00;96281.50;5037083;28;19927;-55
2022/12/10 11:40:36;;;;;;;;;;;2.20;99.90;;;1.12;100.00;96283.22;5045448;28;19970;-56